createdAt,value
2023-03-24T00:00:04.814Z,94.82
2023-03-24T00:02:32.280Z,94.69
2023-03-24T00:04:58.684Z,94.70
2023-03-24T00:07:25.298Z,94.90
2023-03-24T00:09:51.242Z,94.91
2023-03-24T00:12:17.648Z,94.79
2023-03-24T00:14:44.063Z,95.11
2023-03-24T00:17:10.437Z,95.25
2023-03-24T00:19:36.778Z,95.30
2023-03-24T00:22:03.166Z,95.09
2023-03-24T00:24:29.691Z,95.03
2023-03-24T00:26:56.076Z,94.89
2023-03-24T00:29:22.434Z,94.73
2023-03-24T00:31:48.791Z,94.55
2023-03-24T00:34:15.238Z,94.39
2023-03-24T00:36:41.602Z,94.20
2023-03-24T00:39:07.938Z,94.20
2023-03-24T00:41:34.308Z,94.27
2023-03-24T00:44:00.680Z,94.21
2023-03-24T00:46:27.038Z,94.51
2023-03-24T00:48:53.346Z,94.93
2023-03-24T00:51:19.735Z,95.30
2023-03-24T00:53:46.070Z,95.21
2023-03-24T00:56:12.415Z,95.28
2023-03-24T00:58:38.747Z,95.44
2023-03-24T01:01:05.158Z,95.53
2023-03-24T01:03:31.463Z,95.56
2023-03-24T01:05:57.860Z,95.56
2023-03-24T01:08:24.181Z,95.75
2023-03-24T01:10:50.543Z,96.12
2023-03-24T01:13:16.888Z,96.18
2023-03-24T01:15:43.303Z,96.17
2023-03-24T01:18:09.729Z,96.24
2023-03-24T01:20:36.011Z,96.17
2023-03-24T01:23:02.334Z,96.14
2023-03-24T01:25:28.714Z,96.51
2023-03-24T01:27:55.101Z,96.52
2023-03-24T01:30:21.483Z,96.28
2023-03-24T01:32:47.906Z,96.29
2023-03-24T01:35:14.232Z,96.37
2023-03-24T01:37:40.577Z,96.44
2023-03-24T01:40:06.976Z,96.39
2023-03-24T01:42:33.311Z,96.48
2023-03-24T01:44:59.713Z,96.57
2023-03-24T01:47:26.019Z,96.52
2023-03-24T01:49:52.422Z,96.33
2023-03-24T01:52:18.787Z,96.36
2023-03-24T01:54:45.173Z,96.46
2023-03-24T01:57:11.579Z,96.63
2023-03-24T01:59:37.961Z,96.82
2023-03-24T02:02:04.274Z,96.72
2023-03-24T02:04:30.739Z,96.32
2023-03-24T02:06:57.006Z,96.25
2023-03-24T02:09:23.401Z,96.27
2023-03-24T02:11:49.731Z,96.26
2023-03-24T02:14:16.131Z,96.24
2023-03-24T02:16:42.496Z,96.14
2023-03-24T02:19:08.907Z,95.94
2023-03-24T02:21:35.269Z,96.12
2023-03-24T02:24:01.654Z,95.99
2023-03-24T02:26:28.023Z,96.02
2023-03-24T02:28:54.413Z,96.32
2023-03-24T02:31:20.837Z,95.94
2023-03-24T02:33:47.141Z,95.88
2023-03-24T02:36:13.502Z,96.04
2023-03-24T02:38:39.883Z,95.32
2023-03-24T02:41:06.281Z,95.49
2023-03-24T02:43:32.653Z,96.02
2023-03-24T02:45:59.014Z,96.37
2023-03-24T02:48:25.399Z,96.64
2023-03-24T02:50:51.845Z,96.40
2023-03-24T02:53:18.152Z,96.14
2023-03-24T02:55:44.470Z,96.07
2023-03-24T02:58:10.893Z,95.46
2023-03-24T03:00:37.252Z,95.49
2023-03-24T03:03:03.620Z,95.65
2023-03-24T03:05:29.926Z,95.79
2023-03-24T03:07:56.367Z,96.47
2023-03-24T03:10:22.672Z,97.16
2023-03-24T03:12:50.194Z,97.21
2023-03-24T03:15:15.488Z,97.27
2023-03-24T03:17:41.871Z,97.23
2023-03-24T03:20:08.214Z,97.21
2023-03-24T03:22:34.605Z,96.96
2023-03-24T03:25:00.937Z,96.68
2023-03-24T03:27:27.385Z,96.63
2023-03-24T03:29:53.658Z,96.68
2023-03-24T03:32:20.010Z,96.88
2023-03-24T03:34:46.350Z,96.57
2023-03-24T03:37:12.776Z,96.18
2023-03-24T03:39:39.086Z,95.81
2023-03-24T03:42:05.473Z,95.35
2023-03-24T03:44:31.898Z,95.49
2023-03-24T03:46:58.236Z,95.54
2023-03-24T03:49:24.613Z,95.52
2023-03-24T03:51:50.991Z,96.00
2023-03-24T03:54:17.360Z,96.08
2023-03-24T03:56:43.729Z,96.20
2023-03-24T03:59:10.041Z,96.30
2023-03-24T04:01:36.489Z,96.49
2023-03-24T04:04:02.777Z,96.66
2023-03-24T04:06:29.119Z,96.80
2023-03-24T04:08:58.000Z,97.16
2023-03-24T04:11:24.402Z,97.28
2023-03-24T04:13:50.759Z,97.45
2023-03-24T04:16:17.234Z,97.48
2023-03-24T04:18:43.519Z,97.38
2023-03-24T04:21:09.942Z,97.64
2023-03-24T04:23:36.345Z,97.92
2023-03-24T04:26:02.727Z,98.05
2023-03-24T04:28:29.083Z,98.31
2023-03-24T04:30:55.521Z,98.69
2023-03-24T04:33:21.893Z,98.64
2023-03-24T04:35:48.379Z,98.58
2023-03-24T04:38:14.761Z,97.87
2023-03-24T04:40:41.140Z,97.66
2023-03-24T04:43:07.479Z,97.04
2023-03-24T04:45:33.936Z,96.20
2023-03-24T04:48:00.333Z,95.60
2023-03-24T04:50:26.668Z,94.31
2023-03-24T04:52:53.095Z,93.47
2023-03-24T04:55:19.427Z,92.54
2023-03-24T04:57:45.802Z,92.29
2023-03-24T05:00:12.232Z,91.83
2023-03-24T05:02:38.603Z,91.35
2023-03-24T05:05:04.952Z,90.06
2023-03-24T05:07:31.358Z,89.29
2023-03-24T05:09:57.722Z,88.29
2023-03-24T05:12:24.082Z,88.10
2023-03-24T05:14:50.470Z,85.89
2023-03-24T05:17:16.788Z,84.56
2023-03-24T05:19:43.214Z,83.40
2023-03-24T05:22:09.549Z,81.84
2023-03-24T05:24:35.901Z,81.15
2023-03-24T05:27:02.273Z,80.26
2023-03-24T05:29:28.625Z,78.22
2023-03-24T05:31:54.979Z,78.36
2023-03-24T05:34:21.377Z,77.41
2023-03-24T05:36:47.735Z,76.81
2023-03-24T05:39:14.072Z,75.93
2023-03-24T05:41:40.413Z,75.35
2023-03-24T05:44:06.759Z,75.56
2023-03-24T05:46:33.150Z,74.65
2023-03-24T05:48:59.616Z,74.30
2023-03-24T05:51:25.988Z,74.30
2023-03-24T05:53:52.353Z,73.02
2023-03-24T05:56:19.084Z,72.39
2023-03-24T05:58:45.455Z,71.93
2023-03-24T06:01:11.755Z,72.03
2023-03-24T06:03:38.392Z,72.35
2023-03-24T06:06:04.511Z,71.96
2023-03-24T06:08:30.887Z,70.24
2023-03-24T06:10:57.238Z,70.03
2023-03-24T06:13:23.723Z,70.52
2023-03-24T06:15:50.115Z,69.08
2023-03-24T06:18:16.419Z,68.70
2023-03-24T06:20:42.839Z,67.39
2023-03-24T06:23:09.230Z,67.55
2023-03-24T06:25:35.543Z,66.85
2023-03-24T06:28:02.048Z,66.11
2023-03-24T06:30:30.697Z,66.48
2023-03-24T06:32:54.729Z,66.37
2023-03-24T06:35:21.160Z,66.46
2023-03-24T06:37:47.534Z,65.24
2023-03-24T06:40:13.868Z,64.93
2023-03-24T06:42:40.297Z,65.40
2023-03-24T06:45:06.675Z,65.78
2023-03-24T06:47:33.363Z,66.54
2023-03-24T06:49:59.719Z,66.23
2023-03-24T06:52:26.054Z,66.09
2023-03-24T06:54:52.463Z,63.62
2023-03-24T06:57:18.830Z,62.74
2023-03-24T06:59:45.698Z,62.91
2023-03-24T07:02:12.430Z,61.97
2023-03-24T07:04:38.800Z,61.70
2023-03-24T07:07:38.136Z,61.05
2023-03-24T07:09:31.622Z,61.43
2023-03-24T07:11:58.498Z,59.92
2023-03-24T07:14:25.670Z,59.90
2023-03-24T07:16:53.069Z,60.69
2023-03-24T07:19:22.231Z,60.93
2023-03-24T07:21:51.366Z,62.15
2023-03-24T07:24:17.846Z,61.88
2023-03-24T07:26:44.218Z,60.17
2023-03-24T07:29:10.906Z,57.29
2023-03-24T07:31:37.264Z,58.00
2023-03-24T07:34:03.573Z,56.97
2023-03-24T07:36:33.163Z,55.81
2023-03-24T07:38:57.441Z,54.92
2023-03-24T07:41:24.121Z,54.65
2023-03-24T07:43:50.502Z,54.35
2023-03-24T07:46:16.931Z,55.12
2023-03-24T07:48:43.252Z,54.64
2023-03-24T07:51:09.610Z,53.92
2023-03-24T07:53:36.088Z,51.57
2023-03-24T07:56:02.446Z,52.26
2023-03-24T07:58:28.795Z,52.04
2023-03-24T08:00:55.173Z,51.60
2023-03-24T08:03:21.654Z,50.76
2023-03-24T08:05:48.361Z,49.91
2023-03-24T08:08:14.638Z,51.43
2023-03-24T08:10:41.008Z,51.50
2023-03-24T08:13:07.419Z,51.40
2023-03-24T08:15:34.874Z,51.37
2023-03-24T08:18:01.311Z,50.39
2023-03-24T08:20:27.577Z,51.19
2023-03-24T08:22:53.959Z,50.10
2023-03-24T08:25:20.344Z,48.59
2023-03-24T08:27:46.687Z,48.91
2023-03-24T08:30:13.049Z,50.00
2023-03-24T08:32:39.429Z,49.00
2023-03-24T08:35:05.866Z,50.64
2023-03-24T08:37:32.229Z,47.57
2023-03-24T08:39:58.661Z,49.35
2023-03-24T08:42:24.994Z,48.23
2023-03-24T08:44:51.355Z,48.54
2023-03-24T08:47:17.781Z,48.79
2023-03-24T08:49:44.162Z,45.87
2023-03-24T08:52:10.537Z,44.38
2023-03-24T08:54:36.902Z,44.72
2023-03-24T08:57:03.366Z,46.86
2023-03-24T08:59:29.690Z,43.90
2023-03-24T09:01:56.090Z,44.13
2023-03-24T09:04:22.483Z,44.03
2023-03-24T09:06:49.845Z,43.51
2023-03-24T09:09:16.161Z,42.83
2023-03-24T09:11:42.574Z,43.09
2023-03-24T09:14:08.944Z,43.67
2023-03-24T09:16:35.363Z,42.53
2023-03-24T09:19:01.794Z,41.64
2023-03-24T09:21:28.138Z,41.57
2023-03-24T09:23:54.473Z,40.38
2023-03-24T09:26:23.393Z,40.81
2023-03-24T09:28:49.717Z,40.00
2023-03-24T09:31:16.136Z,39.95
2023-03-24T09:33:42.870Z,39.12
2023-03-24T09:36:09.283Z,39.32
2023-03-24T09:38:36.664Z,39.17
2023-03-24T09:41:03.381Z,39.06
2023-03-24T09:43:29.450Z,40.01
2023-03-24T09:45:55.804Z,40.58
2023-03-24T09:48:22.187Z,39.40
2023-03-24T09:50:48.593Z,38.60
2023-03-24T09:53:14.943Z,38.26
2023-03-24T09:55:41.631Z,38.10
2023-03-24T09:58:07.995Z,37.17
2023-03-24T10:00:34.553Z,37.40
2023-03-24T10:03:00.732Z,37.40
2023-03-24T10:05:27.040Z,37.37
2023-03-24T10:07:57.036Z,36.59
2023-03-24T10:10:23.791Z,36.07
2023-03-24T10:12:50.152Z,35.91
2023-03-24T10:15:24.346Z,34.92
2023-03-24T10:17:42.990Z,35.11
2023-03-24T10:20:09.318Z,34.70
2023-03-24T10:22:35.718Z,35.02
2023-03-24T10:25:02.128Z,35.28
2023-03-24T10:27:29.551Z,35.45
2023-03-24T10:29:55.934Z,36.15
2023-03-24T10:32:22.580Z,36.18
2023-03-24T10:34:48.811Z,36.58
2023-03-24T10:37:15.261Z,36.46
2023-03-24T10:39:45.004Z,36.14
2023-03-24T10:42:08.248Z,36.21
2023-03-24T10:44:34.609Z,34.77
2023-03-24T10:47:01.449Z,34.50
2023-03-24T10:49:30.280Z,35.15
2023-03-24T10:51:56.622Z,33.56
2023-03-24T10:54:23.051Z,31.65
2023-03-24T10:56:49.529Z,33.73
2023-03-24T10:59:15.872Z,34.00
2023-03-24T11:01:42.243Z,33.86
2023-03-24T11:04:08.592Z,33.96
2023-03-24T11:06:37.089Z,33.65
2023-03-24T11:09:03.473Z,33.14
2023-03-24T11:11:29.799Z,33.39
2023-03-24T11:13:56.235Z,34.13
2023-03-24T11:16:22.701Z,33.67
2023-03-24T11:18:49.084Z,33.71
2023-03-24T11:21:15.431Z,33.94
2023-03-24T11:23:41.905Z,31.80
2023-03-24T11:26:08.271Z,33.04
2023-03-24T11:28:34.648Z,32.65
2023-03-24T11:31:01.136Z,31.95
2023-03-24T11:33:34.553Z,32.60
2023-03-24T11:36:05.043Z,32.78
2023-03-24T11:38:20.183Z,33.04
2023-03-24T11:40:46.523Z,31.40
2023-03-24T11:43:12.917Z,31.95
2023-03-24T11:45:39.281Z,31.83
2023-03-24T11:48:05.687Z,31.10
2023-03-24T11:50:32.026Z,30.16
2023-03-24T11:52:58.407Z,30.39
2023-03-24T11:55:24.913Z,29.68
2023-03-24T11:57:51.251Z,29.23
2023-03-24T12:00:17.945Z,28.62
2023-03-24T12:02:44.428Z,29.41
2023-03-24T12:05:10.656Z,29.36
2023-03-24T12:07:37.030Z,26.83
2023-03-24T12:10:03.386Z,26.75
2023-03-24T12:12:29.820Z,26.87
2023-03-24T12:14:56.209Z,27.33
2023-03-24T12:17:22.644Z,27.44
2023-03-24T12:19:48.936Z,27.19
2023-03-24T12:22:15.350Z,26.91
2023-03-24T12:24:41.740Z,25.67
2023-03-24T12:27:08.138Z,24.98
2023-03-24T12:29:34.521Z,24.72
2023-03-24T12:32:01.562Z,25.10
2023-03-24T12:34:27.949Z,25.51
2023-03-24T12:36:54.364Z,25.79
2023-03-24T12:39:20.729Z,25.24
2023-03-24T12:41:47.141Z,24.77
2023-03-24T12:44:13.494Z,24.03
2023-03-24T12:46:47.906Z,25.28
2023-03-24T12:49:06.274Z,25.02
2023-03-24T12:51:32.618Z,24.37
2023-03-24T12:53:59.014Z,25.02
2023-03-24T12:56:25.325Z,24.97
2023-03-24T12:58:51.736Z,25.17
2023-03-24T13:01:18.229Z,24.91
2023-03-24T13:03:44.471Z,25.61
2023-03-24T13:06:16.979Z,25.60
2023-03-24T13:08:37.220Z,25.90
2023-03-24T13:11:03.964Z,26.04
2023-03-24T13:13:30.288Z,25.64
2023-03-24T13:15:56.637Z,26.58
2023-03-24T13:18:23.242Z,26.58
2023-03-24T13:20:49.600Z,26.19
2023-03-24T13:23:15.991Z,26.32
2023-03-24T13:25:42.413Z,26.63
2023-03-24T13:28:08.822Z,27.72
2023-03-24T13:30:35.183Z,26.97
2023-03-24T13:33:01.844Z,27.05
2023-03-24T13:35:28.141Z,27.29
2023-03-24T13:37:54.757Z,27.60
2023-03-24T13:40:21.194Z,27.88
2023-03-24T13:42:47.522Z,28.09
2023-03-24T13:45:14.060Z,27.21
2023-03-24T13:47:40.453Z,27.31
2023-03-24T13:50:06.844Z,27.83
2023-03-24T13:52:33.360Z,27.90
2023-03-24T13:54:59.789Z,27.23
2023-03-24T13:57:26.154Z,27.60
2023-03-24T13:59:52.599Z,26.77
2023-03-24T14:02:19.253Z,26.43
2023-03-24T14:04:46.077Z,26.52
2023-03-24T14:07:12.409Z,26.18
2023-03-24T14:09:38.841Z,26.01
2023-03-24T14:12:06.317Z,26.03
2023-03-24T14:14:31.598Z,26.16
2023-03-24T14:16:57.971Z,26.16
2023-03-24T14:19:24.309Z,25.70
2023-03-24T14:21:50.761Z,25.99
2023-03-24T14:24:17.117Z,26.34
2023-03-24T14:26:43.484Z,26.15
2023-03-24T14:29:09.956Z,26.03
2023-03-24T14:31:36.374Z,26.48
2023-03-24T14:34:02.704Z,26.16
2023-03-24T14:36:29.066Z,25.97
2023-03-24T14:38:55.445Z,26.12
2023-03-24T14:41:21.781Z,25.16
2023-03-24T14:43:48.218Z,25.58
2023-03-24T14:46:14.627Z,25.68
2023-03-24T14:48:40.923Z,25.91
2023-03-24T14:51:08.393Z,26.27
2023-03-24T14:53:34.737Z,25.96
2023-03-24T14:56:01.070Z,26.63
2023-03-24T14:58:27.632Z,26.39
2023-03-24T15:01:06.353Z,26.88
2023-03-24T15:03:20.503Z,26.74
2023-03-24T15:05:46.773Z,26.70
2023-03-24T15:08:13.115Z,26.70
2023-03-24T15:10:39.536Z,26.42
2023-03-24T15:13:05.915Z,27.02
2023-03-24T15:15:32.281Z,27.84
2023-03-24T15:17:59.162Z,28.15
2023-03-24T15:20:25.383Z,28.26
2023-03-24T15:22:52.984Z,28.42
2023-03-24T15:25:19.254Z,28.41
2023-03-24T15:27:45.682Z,28.43
2023-03-24T15:30:13.277Z,28.69
2023-03-24T15:32:39.691Z,28.94
2023-03-24T15:35:06.056Z,28.96
2023-03-24T15:37:32.695Z,29.69
2023-03-24T15:40:09.106Z,30.40
2023-03-24T15:42:25.375Z,30.85
2023-03-24T15:44:51.741Z,31.59
2023-03-24T15:47:18.127Z,31.69
2023-03-24T15:49:44.559Z,32.13
2023-03-24T15:52:10.867Z,32.42
2023-03-24T15:54:37.196Z,32.75
2023-03-24T15:57:03.598Z,32.70
2023-03-24T15:59:30.045Z,32.84
2023-03-24T16:01:56.417Z,32.76
2023-03-24T16:04:22.901Z,32.61
2023-03-24T16:06:50.567Z,33.01
2023-03-24T16:09:15.533Z,33.12
2023-03-24T16:11:41.978Z,33.22
2023-03-24T16:14:08.343Z,33.56
2023-03-24T16:16:34.786Z,33.12
2023-03-24T16:19:01.243Z,33.38
2023-03-24T16:21:27.729Z,33.61
2023-03-24T16:23:53.954Z,34.28
2023-03-24T16:26:20.321Z,34.33
2023-03-24T16:28:46.678Z,34.54
2023-03-24T16:31:13.135Z,34.98
2023-03-24T16:33:39.434Z,34.84
2023-03-24T16:36:06.003Z,35.05
2023-03-24T16:38:32.326Z,35.23
2023-03-24T16:40:58.718Z,34.87
2023-03-24T16:43:25.102Z,35.08
2023-03-24T16:45:51.550Z,35.04
2023-03-24T16:48:17.811Z,35.68
2023-03-24T16:50:44.501Z,36.03
2023-03-24T16:53:10.845Z,36.95
2023-03-24T16:55:37.292Z,37.15
2023-03-24T16:58:03.681Z,37.47
2023-03-24T17:00:30.202Z,37.71
2023-03-24T17:02:56.843Z,37.98
2023-03-24T17:05:23.166Z,37.99
2023-03-24T17:07:49.565Z,38.20
2023-03-24T17:10:15.980Z,38.25
2023-03-24T17:12:42.359Z,38.32
2023-03-24T17:15:08.747Z,38.75
2023-03-24T17:17:35.182Z,38.70
2023-03-24T17:20:03.957Z,38.90
2023-03-24T17:22:27.922Z,39.27
2023-03-24T17:24:54.307Z,40.40
2023-03-24T17:27:20.735Z,42.54
2023-03-24T17:29:47.175Z,45.93
2023-03-24T17:32:13.552Z,47.82
2023-03-24T17:34:39.891Z,50.78
2023-03-24T17:37:06.288Z,52.20
2023-03-24T17:39:32.694Z,53.48
2023-03-24T17:41:59.082Z,53.80
2023-03-24T17:44:25.436Z,55.66
2023-03-24T17:46:51.802Z,56.20
2023-03-24T17:49:18.185Z,58.01
2023-03-24T17:51:44.551Z,58.39
2023-03-24T17:54:10.887Z,58.91
2023-03-24T17:56:37.298Z,59.43
2023-03-24T17:59:03.635Z,59.93
2023-03-24T18:01:30.265Z,60.24
2023-03-24T18:03:56.433Z,60.87
2023-03-24T18:06:22.841Z,61.31
2023-03-24T18:08:49.215Z,61.12
2023-03-24T18:11:15.652Z,61.06
2023-03-24T18:13:42.077Z,61.32
2023-03-24T18:16:19.824Z,60.93
2023-03-24T18:18:34.776Z,61.27
2023-03-24T18:21:01.197Z,61.60
2023-03-24T18:23:27.559Z,61.66
2023-03-24T18:25:53.938Z,61.63
2023-03-24T18:28:20.266Z,61.66
2023-03-24T18:30:46.718Z,61.77
2023-03-24T18:33:13.008Z,62.10
2023-03-24T18:35:39.474Z,62.32
2023-03-24T18:38:06.081Z,62.50
2023-03-24T18:40:32.475Z,62.67
2023-03-24T18:42:58.802Z,62.92
2023-03-24T18:45:25.206Z,62.77
2023-03-24T18:47:51.636Z,62.78
2023-03-24T18:50:18.194Z,62.90
2023-03-24T18:52:44.463Z,63.25
2023-03-24T18:55:10.812Z,63.76
2023-03-24T18:57:37.172Z,63.94
2023-03-24T19:00:03.534Z,63.86
2023-03-24T19:02:29.983Z,63.83
2023-03-24T19:04:56.249Z,63.67
2023-03-24T19:07:22.623Z,63.89
2023-03-24T19:09:49.023Z,64.16
2023-03-24T19:12:15.387Z,63.57
2023-03-24T19:14:41.902Z,63.36
2023-03-24T19:17:08.322Z,63.48
2023-03-24T19:19:34.620Z,63.47
2023-03-24T19:22:01.020Z,63.45
2023-03-24T19:24:27.400Z,63.51
2023-03-24T19:26:53.743Z,63.54
2023-03-24T19:29:20.238Z,63.89
2023-03-24T19:31:46.563Z,63.83
2023-03-24T19:34:13.003Z,64.49
2023-03-24T19:36:39.403Z,64.47
2023-03-24T19:39:05.845Z,64.84
2023-03-24T19:41:32.201Z,64.53
2023-03-24T19:43:58.581Z,64.94
2023-03-24T19:46:25.194Z,64.77
2023-03-24T19:48:54.477Z,64.95
2023-03-24T19:51:20.764Z,64.86
2023-03-24T19:53:47.125Z,64.60
2023-03-24T19:56:13.494Z,64.65
2023-03-24T19:58:40.371Z,65.06
2023-03-24T20:01:06.676Z,65.22
2023-03-24T20:03:33.126Z,64.84
2023-03-24T20:05:59.461Z,65.07
2023-03-24T20:08:25.899Z,64.95
2023-03-24T20:10:52.206Z,64.94
2023-03-24T20:13:18.618Z,64.90
2023-03-24T20:15:45.029Z,64.61
2023-03-24T20:18:11.303Z,64.73
2023-03-24T20:20:37.688Z,64.98
2023-03-24T20:23:04.098Z,64.98
2023-03-24T20:25:30.449Z,65.30
2023-03-24T20:27:56.810Z,65.09
2023-03-24T20:30:23.135Z,65.30
2023-03-24T20:32:49.561Z,65.49
2023-03-24T20:35:16.201Z,65.40
2023-03-24T20:37:42.687Z,65.43
2023-03-24T20:40:09.011Z,65.65
2023-03-24T20:42:35.469Z,65.62
2023-03-24T20:45:01.818Z,65.80
2023-03-24T20:47:28.205Z,66.14
2023-03-24T20:49:54.557Z,66.07
2023-03-24T20:52:20.899Z,66.13
2023-03-24T20:54:47.218Z,66.26
2023-03-24T20:57:13.862Z,66.30
2023-03-24T20:59:40.186Z,66.35
2023-03-24T21:02:06.657Z,66.39
2023-03-24T21:04:32.940Z,66.21
2023-03-24T21:06:59.371Z,66.37
2023-03-24T21:09:28.796Z,66.30
2023-03-24T21:11:55.231Z,66.38
2023-03-24T21:14:21.592Z,66.36
2023-03-24T21:16:48.052Z,66.64
2023-03-24T21:19:14.325Z,66.42
2023-03-24T21:21:40.686Z,66.12
2023-03-24T21:24:07.058Z,66.58
2023-03-24T21:26:33.449Z,66.19
2023-03-24T21:28:59.857Z,66.20
2023-03-24T21:31:26.274Z,66.14
2023-03-24T21:33:52.659Z,66.06
2023-03-24T21:36:19.074Z,65.99
2023-03-24T21:38:45.385Z,66.02
2023-03-24T21:41:11.747Z,66.40
2023-03-24T21:43:38.099Z,66.24
2023-03-24T21:46:04.437Z,66.34
2023-03-24T21:48:31.004Z,66.11
2023-03-24T21:50:57.327Z,65.91
2023-03-24T21:53:23.665Z,66.12
2023-03-24T21:55:50.240Z,66.28
2023-03-24T21:58:16.364Z,66.55
2023-03-24T22:00:42.706Z,66.51
2023-03-24T22:03:09.210Z,66.34
2023-03-24T22:05:35.449Z,66.22
2023-03-24T22:08:01.772Z,66.38
2023-03-24T22:10:28.179Z,66.45
2023-03-24T22:12:54.552Z,65.88
2023-03-24T22:15:20.944Z,65.87
2023-03-24T22:17:47.279Z,66.02
2023-03-24T22:20:13.724Z,66.22
2023-03-24T22:22:40.058Z,66.30
2023-03-24T22:25:06.649Z,66.23
2023-03-24T22:27:32.987Z,66.46
2023-03-24T22:29:59.354Z,66.80
2023-03-24T22:32:25.822Z,66.84
2023-03-24T22:34:52.155Z,66.83
2023-03-24T22:37:18.498Z,67.12
2023-03-24T22:39:44.865Z,66.94
2023-03-24T22:42:11.194Z,67.18
2023-03-24T22:44:37.540Z,67.16
2023-03-24T22:47:03.933Z,67.17
2023-03-24T22:49:30.273Z,66.66
2023-03-24T22:51:56.644Z,66.93
2023-03-24T22:54:23.016Z,67.03
2023-03-24T22:56:49.442Z,66.93
2023-03-24T22:59:15.818Z,67.13
2023-03-24T23:01:42.181Z,67.25
2023-03-24T23:04:08.809Z,67.51
2023-03-24T23:06:35.156Z,67.63
2023-03-24T23:09:01.565Z,67.79
2023-03-24T23:11:27.924Z,67.83
2023-03-24T23:13:54.304Z,67.82
2023-03-24T23:16:20.673Z,67.83
2023-03-24T23:18:46.981Z,68.09
2023-03-24T23:21:13.295Z,68.42
2023-03-24T23:23:39.654Z,68.74
2023-03-24T23:26:05.980Z,69.10
2023-03-24T23:28:32.363Z,69.06
2023-03-24T23:30:58.686Z,68.96
2023-03-24T23:33:25.111Z,69.01
2023-03-24T23:35:51.629Z,68.92
2023-03-24T23:38:17.802Z,68.93
2023-03-24T23:40:44.181Z,68.84
2023-03-24T23:43:10.509Z,68.76
2023-03-24T23:45:36.944Z,69.03
2023-03-24T23:48:03.295Z,69.44
2023-03-24T23:50:29.639Z,69.68
2023-03-24T23:52:56.001Z,69.67
2023-03-24T23:55:22.331Z,69.16
2023-03-24T23:57:48.759Z,69.29
